sensor_id;sensor_type;location;lat;lon;timestamp;temperature;humidity
8338;DHT22;4206;48.634;9.516;2022-10-30T00:00:20;11.10;99.90
8338;DHT22;4206;48.634;9.516;2022-10-30T00:02:46;11.00;99.90
8338;DHT22;4206;48.634;9.516;2022-10-30T00:05:13;11.00;99.90
8338;DHT22;4206;48.634;9.516;2022-10-30T00:07:38;11.00;99.90
8338;DHT22;4206;48.634;9.516;2022-10-30T00:10:04;10.90;99.90
8338;DHT22;4206;48.634;9.516;2022-10-30T00:12:30;10.90;99.90
8338;DHT22;4206;48.634;9.516;2022-10-30T00:14:56;11.00;99.90
8338;DHT22;4206;48.634;9.516;2022-10-30T00:17:21;11.00;99.90
8338;DHT22;4206;48.634;9.516;2022-10-30T00:19:47;11.00;99.90
8338;DHT22;4206;48.634;9.516;2022-10-30T00:22:13;10.90;99.90
8338;DHT22;4206;48.634;9.516;2022-10-30T00:24:38;10.90;99.90
8338;DHT22;4206;48.634;9.516;2022-10-30T00:27:04;10.90;99.90
8338;DHT22;4206;48.634;9.516;2022-10-30T00:29:30;10.80;99.90
8338;DHT22;4206;48.634;9.516;2022-10-30T00:31:55;10.80;99.90
8338;DHT22;4206;48.634;9.516;2022-10-30T00:34:21;10.80;99.90
8338;DHT22;4206;48.634;9.516;2022-10-30T00:36:46;10.80;99.90
8338;DHT22;4206;48.634;9.516;2022-10-30T00:39:12;10.70;99.90
8338;DHT22;4206;48.634;9.516;2022-10-30T00:41:38;10.70;99.90
8338;DHT22;4206;48.634;9.516;2022-10-30T00:47:00;10.70;99.90
8338;DHT22;4206;48.634;9.516;2022-10-30T00:49:33;10.60;99.90
8338;DHT22;4206;48.634;9.516;2022-10-30T00:52:02;10.60;99.90
8338;DHT22;4206;48.634;9.516;2022-10-30T00:54:29;10.50;99.90
8338;DHT22;4206;48.634;9.516;2022-10-30T00:56:55;10.50;99.90
8338;DHT22;4206;48.634;9.516;2022-10-30T00:59:23;10.50;99.90
8338;DHT22;4206;48.634;9.516;2022-10-30T01:01:51;10.50;99.90
8338;DHT22;4206;48.634;9.516;2022-10-30T01:04:18;10.50;99.90
8338;DHT22;4206;48.634;9.516;2022-10-30T01:06:46;10.50;99.90
8338;DHT22;4206;48.634;9.516;2022-10-30T01:09:13;10.50;99.90
8338;DHT22;4206;48.634;9.516;2022-10-30T01:11:39;10.50;99.90
8338;DHT22;4206;48.634;9.516;2022-10-30T01:14:06;10.40;99.90
8338;DHT22;4206;48.634;9.516;2022-10-30T01:16:48;10.40;99.90
8338;DHT22;4206;48.634;9.516;2022-10-30T01:21:56;10.40;99.90
8338;DHT22;4206;48.634;9.516;2022-10-30T01:35:09;10.40;99.90
8338;DHT22;4206;48.634;9.516;2022-10-30T01:37:47;10.40;99.90
8338;DHT22;4206;48.634;9.516;2022-10-30T01:40:17;10.40;99.90
8338;DHT22;4206;48.634;9.516;2022-10-30T01:42:45;10.50;99.90
8338;DHT22;4206;48.634;9.516;2022-10-30T01:45:17;10.50;99.90
8338;DHT22;4206;48.634;9.516;2022-10-30T01:50:24;10.50;99.90
8338;DHT22;4206;48.634;9.516;2022-10-30T01:55:50;10.50;99.90
8338;DHT22;4206;48.634;9.516;2022-10-30T01:58:27;10.50;99.90
8338;DHT22;4206;48.634;9.516;2022-10-30T02:00:57;10.60;99.90
8338;DHT22;4206;48.634;9.516;2022-10-30T02:03:25;10.60;99.90
8338;DHT22;4206;48.634;9.516;2022-10-30T02:05:52;10.60;99.90
8338;DHT22;4206;48.634;9.516;2022-10-30T02:08:18;10.60;99.90
8338;DHT22;4206;48.634;9.516;2022-10-30T02:10:46;10.50;99.90
8338;DHT22;4206;48.634;9.516;2022-10-30T02:13:12;10.60;99.90
8338;DHT22;4206;48.634;9.516;2022-10-30T02:15:38;10.70;99.90
8338;DHT22;4206;48.634;9.516;2022-10-30T02:18:04;10.70;99.90
8338;DHT22;4206;48.634;9.516;2022-10-30T02:20:30;10.80;99.90
8338;DHT22;4206;48.634;9.516;2022-10-30T02:22:56;10.90;99.90
8338;DHT22;4206;48.634;9.516;2022-10-30T02:25:21;10.90;99.90
8338;DHT22;4206;48.634;9.516;2022-10-30T02:27:47;10.90;99.90
8338;DHT22;4206;48.634;9.516;2022-10-30T02:30:13;10.90;99.90
8338;DHT22;4206;48.634;9.516;2022-10-30T02:32:39;10.90;99.90
8338;DHT22;4206;48.634;9.516;2022-10-30T02:35:05;10.80;99.90
8338;DHT22;4206;48.634;9.516;2022-10-30T02:37:30;10.70;99.90
8338;DHT22;4206;48.634;9.516;2022-10-30T02:40:00;10.70;99.90
8338;DHT22;4206;48.634;9.516;2022-10-30T02:42:26;10.70;99.90
8338;DHT22;4206;48.634;9.516;2022-10-30T02:44:51;10.70;99.90
8338;DHT22;4206;48.634;9.516;2022-10-30T02:47:17;10.70;99.90
8338;DHT22;4206;48.634;9.516;2022-10-30T02:49:42;10.60;99.90
8338;DHT22;4206;48.634;9.516;2022-10-30T02:52:08;10.50;99.90
8338;DHT22;4206;48.634;9.516;2022-10-30T02:54:34;10.50;99.90
8338;DHT22;4206;48.634;9.516;2022-10-30T02:57:00;10.50;99.90
8338;DHT22;4206;48.634;9.516;2022-10-30T02:59:26;10.50;99.90
8338;DHT22;4206;48.634;9.516;2022-10-30T03:01:51;10.50;99.90
8338;DHT22;4206;48.634;9.516;2022-10-30T03:04:17;10.50;99.90
8338;DHT22;4206;48.634;9.516;2022-10-30T03:06:43;10.50;99.90
8338;DHT22;4206;48.634;9.516;2022-10-30T03:09:08;10.60;99.90
8338;DHT22;4206;48.634;9.516;2022-10-30T03:11:34;10.60;99.90
8338;DHT22;4206;48.634;9.516;2022-10-30T03:14:00;10.70;99.90
8338;DHT22;4206;48.634;9.516;2022-10-30T03:16:26;10.70;99.90
8338;DHT22;4206;48.634;9.516;2022-10-30T03:18:57;10.70;99.90
8338;DHT22;4206;48.634;9.516;2022-10-30T03:21:25;10.70;99.90
8338;DHT22;4206;48.634;9.516;2022-10-30T03:23:52;10.70;99.90
8338;DHT22;4206;48.634;9.516;2022-10-30T03:26:18;10.70;99.90
8338;DHT22;4206;48.634;9.516;2022-10-30T03:28:44;10.70;99.90
8338;DHT22;4206;48.634;9.516;2022-10-30T03:31:12;10.60;99.90
8338;DHT22;4206;48.634;9.516;2022-10-30T03:33:38;10.60;99.90
8338;DHT22;4206;48.634;9.516;2022-10-30T03:36:05;10.60;99.90
8338;DHT22;4206;48.634;9.516;2022-10-30T03:38:31;10.70;99.90
8338;DHT22;4206;48.634;9.516;2022-10-30T03:40:57;10.70;99.90
8338;DHT22;4206;48.634;9.516;2022-10-30T03:43:23;10.60;99.90
8338;DHT22;4206;48.634;9.516;2022-10-30T03:45:51;10.60;99.90
8338;DHT22;4206;48.634;9.516;2022-10-30T03:48:18;10.60;99.90
8338;DHT22;4206;48.634;9.516;2022-10-30T03:50:45;10.50;99.90
8338;DHT22;4206;48.634;9.516;2022-10-30T03:53:11;10.60;99.90
8338;DHT22;4206;48.634;9.516;2022-10-30T03:55:37;10.60;99.90
8338;DHT22;4206;48.634;9.516;2022-10-30T03:58:04;10.60;99.90
8338;DHT22;4206;48.634;9.516;2022-10-30T04:00:30;10.60;99.90
8338;DHT22;4206;48.634;9.516;2022-10-30T04:02:56;10.50;99.90
8338;DHT22;4206;48.634;9.516;2022-10-30T04:05:23;10.50;99.90
8338;DHT22;4206;48.634;9.516;2022-10-30T04:07:54;10.50;99.90
8338;DHT22;4206;48.634;9.516;2022-10-30T04:10:21;10.50;99.90
8338;DHT22;4206;48.634;9.516;2022-10-30T04:12:46;10.40;99.90
8338;DHT22;4206;48.634;9.516;2022-10-30T04:15:12;10.30;99.90
8338;DHT22;4206;48.634;9.516;2022-10-30T04:17:38;10.40;99.90
8338;DHT22;4206;48.634;9.516;2022-10-30T04:20:04;10.40;99.90
8338;DHT22;4206;48.634;9.516;2022-10-30T04:22:29;10.40;99.90
8338;DHT22;4206;48.634;9.516;2022-10-30T04:24:55;10.40;99.90
8338;DHT22;4206;48.634;9.516;2022-10-30T04:27:20;10.30;99.90
8338;DHT22;4206;48.634;9.516;2022-10-30T04:29:46;10.40;99.90
8338;DHT22;4206;48.634;9.516;2022-10-30T04:32:12;10.30;99.90
8338;DHT22;4206;48.634;9.516;2022-10-30T04:34:38;10.30;99.90
8338;DHT22;4206;48.634;9.516;2022-10-30T04:37:05;10.30;99.90
8338;DHT22;4206;48.634;9.516;2022-10-30T04:39:31;10.20;99.90
8338;DHT22;4206;48.634;9.516;2022-10-30T04:41:57;10.20;99.90
8338;DHT22;4206;48.634;9.516;2022-10-30T04:44:23;10.20;99.90
8338;DHT22;4206;48.634;9.516;2022-10-30T04:46:48;10.20;99.90
8338;DHT22;4206;48.634;9.516;2022-10-30T04:49:14;10.20;99.90
8338;DHT22;4206;48.634;9.516;2022-10-30T04:51:40;10.20;99.90
8338;DHT22;4206;48.634;9.516;2022-10-30T04:54:05;10.10;99.90
8338;DHT22;4206;48.634;9.516;2022-10-30T04:56:31;10.10;99.90
8338;DHT22;4206;48.634;9.516;2022-10-30T04:58:58;10.20;99.90
8338;DHT22;4206;48.634;9.516;2022-10-30T05:01:24;10.20;99.90
8338;DHT22;4206;48.634;9.516;2022-10-30T05:03:50;10.10;99.90
8338;DHT22;4206;48.634;9.516;2022-10-30T05:06:21;10.10;99.90
8338;DHT22;4206;48.634;9.516;2022-10-30T05:08:48;10.10;99.90
8338;DHT22;4206;48.634;9.516;2022-10-30T05:11:15;10.10;99.90
8338;DHT22;4206;48.634;9.516;2022-10-30T05:13:40;10.10;99.90
8338;DHT22;4206;48.634;9.516;2022-10-30T05:16:06;10.00;99.90
8338;DHT22;4206;48.634;9.516;2022-10-30T05:18:32;10.00;99.90
8338;DHT22;4206;48.634;9.516;2022-10-30T05:20:57;10.00;99.90
8338;DHT22;4206;48.634;9.516;2022-10-30T05:23:23;10.00;99.90
8338;DHT22;4206;48.634;9.516;2022-10-30T05:25:49;10.00;99.90
8338;DHT22;4206;48.634;9.516;2022-10-30T05:28:14;9.90;99.90
8338;DHT22;4206;48.634;9.516;2022-10-30T05:30:40;9.80;99.90
8338;DHT22;4206;48.634;9.516;2022-10-30T05:33:09;9.80;99.90
8338;DHT22;4206;48.634;9.516;2022-10-30T05:35:35;9.80;99.90
8338;DHT22;4206;48.634;9.516;2022-10-30T05:38:03;9.70;99.90
8338;DHT22;4206;48.634;9.516;2022-10-30T05:40:30;9.70;99.90
8338;DHT22;4206;48.634;9.516;2022-10-30T05:42:55;9.70;99.90
8338;DHT22;4206;48.634;9.516;2022-10-30T05:45:21;9.60;99.90
8338;DHT22;4206;48.634;9.516;2022-10-30T05:47:54;9.60;99.90
8338;DHT22;4206;48.634;9.516;2022-10-30T05:50:19;9.50;99.90
8338;DHT22;4206;48.634;9.516;2022-10-30T05:52:45;9.40;99.90
8338;DHT22;4206;48.634;9.516;2022-10-30T05:55:11;9.50;99.90
8338;DHT22;4206;48.634;9.516;2022-10-30T05:57:36;9.40;99.90
8338;DHT22;4206;48.634;9.516;2022-10-30T06:00:02;9.40;99.90
8338;DHT22;4206;48.634;9.516;2022-10-30T06:02:28;9.40;99.90
8338;DHT22;4206;48.634;9.516;2022-10-30T06:04:54;9.40;99.90
8338;DHT22;4206;48.634;9.516;2022-10-30T06:07:19;9.40;99.90
8338;DHT22;4206;48.634;9.516;2022-10-30T06:09:45;9.40;99.90
8338;DHT22;4206;48.634;9.516;2022-10-30T06:12:10;9.40;99.90
8338;DHT22;4206;48.634;9.516;2022-10-30T06:14:36;9.40;99.90
8338;DHT22;4206;48.634;9.516;2022-10-30T06:17:01;9.40;99.90
8338;DHT22;4206;48.634;9.516;2022-10-30T06:19:27;9.30;99.90
8338;DHT22;4206;48.634;9.516;2022-10-30T06:21:53;9.40;99.90
8338;DHT22;4206;48.634;9.516;2022-10-30T06:24:19;9.40;99.90
8338;DHT22;4206;48.634;9.516;2022-10-30T06:26:45;9.40;99.90
8338;DHT22;4206;48.634;9.516;2022-10-30T06:29:10;9.40;99.90
8338;DHT22;4206;48.634;9.516;2022-10-30T06:31:36;9.50;99.90
8338;DHT22;4206;48.634;9.516;2022-10-30T06:34:01;9.50;99.90
8338;DHT22;4206;48.634;9.516;2022-10-30T06:36:27;9.50;99.90
8338;DHT22;4206;48.634;9.516;2022-10-30T06:38:53;9.60;99.90
8338;DHT22;4206;48.634;9.516;2022-10-30T06:41:18;9.70;99.90
8338;DHT22;4206;48.634;9.516;2022-10-30T06:43:44;9.70;99.90
8338;DHT22;4206;48.634;9.516;2022-10-30T06:46:10;9.80;99.90
8338;DHT22;4206;48.634;9.516;2022-10-30T06:48:35;9.90;99.90
8338;DHT22;4206;48.634;9.516;2022-10-30T06:51:01;10.00;99.90
8338;DHT22;4206;48.634;9.516;2022-10-30T06:53:27;10.10;99.90
8338;DHT22;4206;48.634;9.516;2022-10-30T06:55:54;10.20;99.90
8338;DHT22;4206;48.634;9.516;2022-10-30T06:58:21;10.40;99.90
8338;DHT22;4206;48.634;9.516;2022-10-30T07:00:46;10.50;99.90
8338;DHT22;4206;48.634;9.516;2022-10-30T07:03:12;10.70;99.90
8338;DHT22;4206;48.634;9.516;2022-10-30T07:05:37;10.90;99.90
8338;DHT22;4206;48.634;9.516;2022-10-30T07:08:03;11.10;99.90
8338;DHT22;4206;48.634;9.516;2022-10-30T07:10:29;11.40;99.90
8338;DHT22;4206;48.634;9.516;2022-10-30T07:12:55;11.60;99.90
8338;DHT22;4206;48.634;9.516;2022-10-30T07:15:21;12.10;99.90
8338;DHT22;4206;48.634;9.516;2022-10-30T07:17:57;12.80;99.90
8338;DHT22;4206;48.634;9.516;2022-10-30T07:20:23;13.60;99.90
8338;DHT22;4206;48.634;9.516;2022-10-30T07:22:49;14.20;99.90
8338;DHT22;4206;48.634;9.516;2022-10-30T07:25:15;14.90;99.90
8338;DHT22;4206;48.634;9.516;2022-10-30T07:27:42;15.90;99.90
8338;DHT22;4206;48.634;9.516;2022-10-30T07:30:09;16.80;99.90
8338;DHT22;4206;48.634;9.516;2022-10-30T07:32:35;17.80;99.90
8338;DHT22;4206;48.634;9.516;2022-10-30T07:35:01;18.90;99.90
8338;DHT22;4206;48.634;9.516;2022-10-30T07:37:28;19.70;99.90
8338;DHT22;4206;48.634;9.516;2022-10-30T07:39:54;20.50;99.90
8338;DHT22;4206;48.634;9.516;2022-10-30T07:42:19;20.50;99.90
8338;DHT22;4206;48.634;9.516;2022-10-30T07:44:45;21.00;99.90
8338;DHT22;4206;48.634;9.516;2022-10-30T07:47:11;20.80;99.90
8338;DHT22;4206;48.634;9.516;2022-10-30T07:49:36;20.90;99.90
8338;DHT22;4206;48.634;9.516;2022-10-30T07:52:02;19.90;99.90
8338;DHT22;4206;48.634;9.516;2022-10-30T07:54:28;19.70;99.90
8338;DHT22;4206;48.634;9.516;2022-10-30T07:56:53;20.00;99.90
8338;DHT22;4206;48.634;9.516;2022-10-30T07:59:19;20.40;99.90
8338;DHT22;4206;48.634;9.516;2022-10-30T08:01:45;21.30;99.90
8338;DHT22;4206;48.634;9.516;2022-10-30T08:04:10;21.80;99.90
8338;DHT22;4206;48.634;9.516;2022-10-30T08:06:38;21.80;99.90
8338;DHT22;4206;48.634;9.516;2022-10-30T08:09:04;22.30;99.90
8338;DHT22;4206;48.634;9.516;2022-10-30T08:11:30;22.30;99.90
8338;DHT22;4206;48.634;9.516;2022-10-30T08:13:56;22.20;99.90
8338;DHT22;4206;48.634;9.516;2022-10-30T08:16:21;23.30;99.90
8338;DHT22;4206;48.634;9.516;2022-10-30T08:18:47;23.50;99.90
8338;DHT22;4206;48.634;9.516;2022-10-30T08:21:12;23.80;99.90
8338;DHT22;4206;48.634;9.516;2022-10-30T08:23:38;23.50;99.90
8338;DHT22;4206;48.634;9.516;2022-10-30T08:26:04;23.70;99.90
8338;DHT22;4206;48.634;9.516;2022-10-30T08:28:31;23.20;99.90
8338;DHT22;4206;48.634;9.516;2022-10-30T08:30:57;23.30;99.90
8338;DHT22;4206;48.634;9.516;2022-10-30T08:33:23;24.00;99.90
8338;DHT22;4206;48.634;9.516;2022-10-30T08:35:49;24.10;99.90
8338;DHT22;4206;48.634;9.516;2022-10-30T08:38:16;24.80;99.90
8338;DHT22;4206;48.634;9.516;2022-10-30T08:40:42;24.20;99.90
8338;DHT22;4206;48.634;9.516;2022-10-30T08:43:08;23.80;99.90
8338;DHT22;4206;48.634;9.516;2022-10-30T08:45:34;24.50;99.90
8338;DHT22;4206;48.634;9.516;2022-10-30T08:48:01;25.00;99.90
8338;DHT22;4206;48.634;9.516;2022-10-30T08:50:29;25.40;99.90
8338;DHT22;4206;48.634;9.516;2022-10-30T08:52:55;24.70;99.90
8338;DHT22;4206;48.634;9.516;2022-10-30T08:55:21;25.00;99.90
8338;DHT22;4206;48.634;9.516;2022-10-30T08:57:46;24.90;99.90
8338;DHT22;4206;48.634;9.516;2022-10-30T09:00:12;24.10;99.90
8338;DHT22;4206;48.634;9.516;2022-10-30T09:02:38;23.90;99.90
8338;DHT22;4206;48.634;9.516;2022-10-30T09:05:05;23.00;99.90
8338;DHT22;4206;48.634;9.516;2022-10-30T09:07:31;22.80;99.90
8338;DHT22;4206;48.634;9.516;2022-10-30T09:09:57;23.10;99.90
8338;DHT22;4206;48.634;9.516;2022-10-30T09:12:22;23.50;99.90
8338;DHT22;4206;48.634;9.516;2022-10-30T09:14:48;23.50;99.90
8338;DHT22;4206;48.634;9.516;2022-10-30T09:17:14;24.00;99.90
8338;DHT22;4206;48.634;9.516;2022-10-30T09:19:39;24.20;99.90
8338;DHT22;4206;48.634;9.516;2022-10-30T09:22:06;24.40;99.90
8338;DHT22;4206;48.634;9.516;2022-10-30T09:24:32;24.60;99.90
8338;DHT22;4206;48.634;9.516;2022-10-30T09:26:57;25.10;99.90
8338;DHT22;4206;48.634;9.516;2022-10-30T09:29:23;24.60;99.90
8338;DHT22;4206;48.634;9.516;2022-10-30T09:31:48;24.40;99.90
8338;DHT22;4206;48.634;9.516;2022-10-30T09:34:14;25.60;99.90
8338;DHT22;4206;48.634;9.516;2022-10-30T09:36:40;26.00;99.90
8338;DHT22;4206;48.634;9.516;2022-10-30T09:39:08;25.60;99.90
8338;DHT22;4206;48.634;9.516;2022-10-30T09:41:46;26.00;99.90
8338;DHT22;4206;48.634;9.516;2022-10-30T09:49:50;25.70;99.90
8338;DHT22;4206;48.634;9.516;2022-10-30T09:52:20;25.60;99.90
8338;DHT22;4206;48.634;9.516;2022-10-30T09:57:29;26.10;99.90
8338;DHT22;4206;48.634;9.516;2022-10-30T10:07:31;26.20;99.90
8338;DHT22;4206;48.634;9.516;2022-10-30T10:10:05;26.50;99.90
8338;DHT22;4206;48.634;9.516;2022-10-30T10:15:13;27.10;99.90
8338;DHT22;4206;48.634;9.516;2022-10-30T10:17:43;27.20;99.90
8338;DHT22;4206;48.634;9.516;2022-10-30T10:20:16;27.30;99.90
8338;DHT22;4206;48.634;9.516;2022-10-30T10:22:48;27.30;99.90
8338;DHT22;4206;48.634;9.516;2022-10-30T10:25:16;27.80;99.90
8338;DHT22;4206;48.634;9.516;2022-10-30T10:30:30;27.50;99.90
8338;DHT22;4206;48.634;9.516;2022-10-30T10:33:18;27.50;99.90
8338;DHT22;4206;48.634;9.516;2022-10-30T10:38:30;26.90;99.90
8338;DHT22;4206;48.634;9.516;2022-10-30T10:49:09;27.60;99.90
8338;DHT22;4206;48.634;9.516;2022-10-30T10:51:40;27.60;99.90
8338;DHT22;4206;48.634;9.516;2022-10-30T10:54:09;26.90;99.90
8338;DHT22;4206;48.634;9.516;2022-10-30T10:56:39;26.90;99.90
8338;DHT22;4206;48.634;9.516;2022-10-30T11:01:43;27.30;99.90
8338;DHT22;4206;48.634;9.516;2022-10-30T11:04:13;28.00;99.90
8338;DHT22;4206;48.634;9.516;2022-10-30T11:06:42;29.00;99.90
8338;DHT22;4206;48.634;9.516;2022-10-30T11:09:13;28.80;99.90
8338;DHT22;4206;48.634;9.516;2022-10-30T11:11:42;28.60;99.90
8338;DHT22;4206;48.634;9.516;2022-10-30T11:14:27;28.80;99.90
8338;DHT22;4206;48.634;9.516;2022-10-30T11:19:34;28.80;99.90
8338;DHT22;4206;48.634;9.516;2022-10-30T11:22:01;29.10;99.90
8338;DHT22;4206;48.634;9.516;2022-10-30T11:24:32;28.80;99.90
8338;DHT22;4206;48.634;9.516;2022-10-30T11:27:19;28.90;99.90
8338;DHT22;4206;48.634;9.516;2022-10-30T11:29:56;28.10;99.90
8338;DHT22;4206;48.634;9.516;2022-10-30T11:32:26;27.80;99.90
8338;DHT22;4206;48.634;9.516;2022-10-30T11:37:36;28.50;99.90
8338;DHT22;4206;48.634;9.516;2022-10-30T11:42:44;29.00;99.90
8338;DHT22;4206;48.634;9.516;2022-10-30T11:45:16;30.10;99.90
8338;DHT22;4206;48.634;9.516;2022-10-30T11:47:43;30.40;99.90
8338;DHT22;4206;48.634;9.516;2022-10-30T11:52:41;30.50;99.90
8338;DHT22;4206;48.634;9.516;2022-10-30T11:57:58;30.00;99.90
8338;DHT22;4206;48.634;9.516;2022-10-30T12:00:27;30.40;99.90
8338;DHT22;4206;48.634;9.516;2022-10-30T12:02:58;30.80;99.90
8338;DHT22;4206;48.634;9.516;2022-10-30T12:07:57;31.80;99.40
8338;DHT22;4206;48.634;9.516;2022-10-30T12:10:44;31.60;99.90
8338;DHT22;4206;48.634;9.516;2022-10-30T12:13:16;32.00;98.90
8338;DHT22;4206;48.634;9.516;2022-10-30T12:15:43;32.40;97.50
8338;DHT22;4206;48.634;9.516;2022-10-30T12:18:21;32.70;97.80
8338;DHT22;4206;48.634;9.516;2022-10-30T12:20:52;32.80;97.50
8338;DHT22;4206;48.634;9.516;2022-10-30T12:23:20;32.50;97.30
8338;DHT22;4206;48.634;9.516;2022-10-30T12:25:51;31.20;97.50
8338;DHT22;4206;48.634;9.516;2022-10-30T12:28:21;29.90;98.20
8338;DHT22;4206;48.634;9.516;2022-10-30T12:30:52;30.70;98.30
8338;DHT22;4206;48.634;9.516;2022-10-30T12:33:32;30.30;97.90
8338;DHT22;4206;48.634;9.516;2022-10-30T12:36:05;30.90;97.20
8338;DHT22;4206;48.634;9.516;2022-10-30T12:41:19;30.80;97.20
8338;DHT22;4206;48.634;9.516;2022-10-30T12:46:55;29.70;98.70
8338;DHT22;4206;48.634;9.516;2022-10-30T12:49:30;29.70;98.90
8338;DHT22;4206;48.634;9.516;2022-10-30T12:54:42;30.70;98.00
8338;DHT22;4206;48.634;9.516;2022-10-30T12:57:14;30.90;98.30
8338;DHT22;4206;48.634;9.516;2022-10-30T13:05:25;30.40;99.00
8338;DHT22;4206;48.634;9.516;2022-10-30T13:08:19;30.50;98.40
8338;DHT22;4206;48.634;9.516;2022-10-30T13:10:52;31.70;97.10
8338;DHT22;4206;48.634;9.516;2022-10-30T13:13:22;31.40;98.00
8338;DHT22;4206;48.634;9.516;2022-10-30T13:16:11;30.80;97.00
8338;DHT22;4206;48.634;9.516;2022-10-30T13:18:37;31.00;96.70
8338;DHT22;4206;48.634;9.516;2022-10-30T13:21:13;31.70;96.80
8338;DHT22;4206;48.634;9.516;2022-10-30T13:23:51;30.60;97.90
8338;DHT22;4206;48.634;9.516;2022-10-30T13:26:26;30.00;97.60
8338;DHT22;4206;48.634;9.516;2022-10-30T13:31:50;29.10;99.00
8338;DHT22;4206;48.634;9.516;2022-10-30T13:37:10;28.40;99.30
8338;DHT22;4206;48.634;9.516;2022-10-30T13:39:46;28.20;99.90
8338;DHT22;4206;48.634;9.516;2022-10-30T13:42:24;27.60;99.90
8338;DHT22;4206;48.634;9.516;2022-10-30T13:47:43;27.40;99.90
8338;DHT22;4206;48.634;9.516;2022-10-30T13:52:48;27.80;99.90
8338;DHT22;4206;48.634;9.516;2022-10-30T13:55:25;27.30;99.90
8338;DHT22;4206;48.634;9.516;2022-10-30T14:05:45;26.80;99.90
8338;DHT22;4206;48.634;9.516;2022-10-30T14:11:04;26.20;99.90
8338;DHT22;4206;48.634;9.516;2022-10-30T14:16:01;25.50;99.90
8338;DHT22;4206;48.634;9.516;2022-10-30T14:18:31;25.00;99.90
8338;DHT22;4206;48.634;9.516;2022-10-30T14:24:01;24.30;99.90
8338;DHT22;4206;48.634;9.516;2022-10-30T14:26:27;24.10;99.90
8338;DHT22;4206;48.634;9.516;2022-10-30T14:28:54;23.60;99.90
8338;DHT22;4206;48.634;9.516;2022-10-30T14:31:32;23.50;99.90
8338;DHT22;4206;48.634;9.516;2022-10-30T14:33:58;23.40;99.90
8338;DHT22;4206;48.634;9.516;2022-10-30T14:52:06;22.50;99.90
8338;DHT22;4206;48.634;9.516;2022-10-30T14:54:52;22.40;99.90
8338;DHT22;4206;48.634;9.516;2022-10-30T14:57:22;22.40;99.90
8338;DHT22;4206;48.634;9.516;2022-10-30T14:59:48;22.10;99.90
8338;DHT22;4206;48.634;9.516;2022-10-30T15:07:29;21.70;99.90
8338;DHT22;4206;48.634;9.516;2022-10-30T15:12:36;21.70;99.90
8338;DHT22;4206;48.634;9.516;2022-10-30T15:15:08;21.60;99.90
8338;DHT22;4206;48.634;9.516;2022-10-30T15:17:39;21.50;99.90
8338;DHT22;4206;48.634;9.516;2022-10-30T15:20:13;21.40;99.90
8338;DHT22;4206;48.634;9.516;2022-10-30T15:22:40;21.30;99.90
8338;DHT22;4206;48.634;9.516;2022-10-30T15:25:15;21.10;99.90
8338;DHT22;4206;48.634;9.516;2022-10-30T15:27:44;21.00;99.90
8338;DHT22;4206;48.634;9.516;2022-10-30T15:30:16;20.80;99.90
8338;DHT22;4206;48.634;9.516;2022-10-30T15:32:44;20.70;99.90
8338;DHT22;4206;48.634;9.516;2022-10-30T15:35:26;20.50;99.90
8338;DHT22;4206;48.634;9.516;2022-10-30T15:40:23;20.20;99.90
8338;DHT22;4206;48.634;9.516;2022-10-30T15:42:50;20.20;99.90
8338;DHT22;4206;48.634;9.516;2022-10-30T15:45:22;20.00;99.90
8338;DHT22;4206;48.634;9.516;2022-10-30T15:47:57;19.80;99.90
8338;DHT22;4206;48.634;9.516;2022-10-30T15:50:23;19.60;99.90
8338;DHT22;4206;48.634;9.516;2022-10-30T15:52:49;19.40;99.90
8338;DHT22;4206;48.634;9.516;2022-10-30T15:55:19;19.30;99.90
8338;DHT22;4206;48.634;9.516;2022-10-30T15:57:50;19.20;99.90
8338;DHT22;4206;48.634;9.516;2022-10-30T16:00:26;19.00;99.90
8338;DHT22;4206;48.634;9.516;2022-10-30T16:03:04;18.90;99.90
8338;DHT22;4206;48.634;9.516;2022-10-30T16:05:30;18.80;99.90
8338;DHT22;4206;48.634;9.516;2022-10-30T16:07:58;18.70;99.90
8338;DHT22;4206;48.634;9.516;2022-10-30T16:10:30;18.50;99.90
8338;DHT22;4206;48.634;9.516;2022-10-30T16:12:57;18.40;99.90
8338;DHT22;4206;48.634;9.516;2022-10-30T16:15:29;18.20;99.90
8338;DHT22;4206;48.634;9.516;2022-10-30T16:18:02;18.00;99.90
8338;DHT22;4206;48.634;9.516;2022-10-30T16:20:29;18.00;99.90
8338;DHT22;4206;48.634;9.516;2022-10-30T16:22:54;17.90;99.90
8338;DHT22;4206;48.634;9.516;2022-10-30T16:25:20;17.70;99.90
8338;DHT22;4206;48.634;9.516;2022-10-30T16:27:46;17.60;99.90
8338;DHT22;4206;48.634;9.516;2022-10-30T16:30:13;17.50;99.90
8338;DHT22;4206;48.634;9.516;2022-10-30T16:32:43;17.40;99.90
8338;DHT22;4206;48.634;9.516;2022-10-30T16:35:10;17.30;99.90
8338;DHT22;4206;48.634;9.516;2022-10-30T16:37:37;17.20;99.90
8338;DHT22;4206;48.634;9.516;2022-10-30T16:42:35;17.00;99.90
8338;DHT22;4206;48.634;9.516;2022-10-30T16:47:45;16.90;99.90
8338;DHT22;4206;48.634;9.516;2022-10-30T16:50:14;16.80;99.90
8338;DHT22;4206;48.634;9.516;2022-10-30T16:52:41;16.70;99.90
8338;DHT22;4206;48.634;9.516;2022-10-30T16:55:13;16.60;99.90
8338;DHT22;4206;48.634;9.516;2022-10-30T16:57:42;16.50;99.90
8338;DHT22;4206;48.634;9.516;2022-10-30T17:00:24;16.40;99.90
8338;DHT22;4206;48.634;9.516;2022-10-30T17:02:51;16.30;99.90
8338;DHT22;4206;48.634;9.516;2022-10-30T17:05:27;16.20;99.90
8338;DHT22;4206;48.634;9.516;2022-10-30T17:07:55;16.10;99.90
8338;DHT22;4206;48.634;9.516;2022-10-30T17:10:32;15.90;99.90
8338;DHT22;4206;48.634;9.516;2022-10-30T17:15:55;15.70;99.90
8338;DHT22;4206;48.634;9.516;2022-10-30T17:18:27;15.60;99.90
8338;DHT22;4206;48.634;9.516;2022-10-30T17:21:12;15.50;99.90
8338;DHT22;4206;48.634;9.516;2022-10-30T17:23:45;15.40;99.90
8338;DHT22;4206;48.634;9.516;2022-10-30T17:26:12;15.30;99.90
8338;DHT22;4206;48.634;9.516;2022-10-30T17:28:39;15.20;99.90
8338;DHT22;4206;48.634;9.516;2022-10-30T17:31:22;15.10;99.90
8338;DHT22;4206;48.634;9.516;2022-10-30T17:34:09;15.00;99.90
8338;DHT22;4206;48.634;9.516;2022-10-30T17:36:35;14.90;99.90
8338;DHT22;4206;48.634;9.516;2022-10-30T17:39:00;14.80;99.90
8338;DHT22;4206;48.634;9.516;2022-10-30T17:41:26;14.70;99.90
8338;DHT22;4206;48.634;9.516;2022-10-30T17:43:54;14.60;99.90
8338;DHT22;4206;48.634;9.516;2022-10-30T17:46:21;14.50;99.90
8338;DHT22;4206;48.634;9.516;2022-10-30T17:48:47;14.50;99.90
8338;DHT22;4206;48.634;9.516;2022-10-30T17:51:13;14.40;99.90
8338;DHT22;4206;48.634;9.516;2022-10-30T17:53:39;14.30;99.90
8338;DHT22;4206;48.634;9.516;2022-10-30T17:56:15;14.30;99.90
8338;DHT22;4206;48.634;9.516;2022-10-30T17:58:41;14.30;99.90
8338;DHT22;4206;48.634;9.516;2022-10-30T18:01:11;14.20;99.90
8338;DHT22;4206;48.634;9.516;2022-10-30T18:03:37;14.10;99.90
8338;DHT22;4206;48.634;9.516;2022-10-30T18:06:03;14.00;99.90
8338;DHT22;4206;48.634;9.516;2022-10-30T18:08:29;14.00;99.90
8338;DHT22;4206;48.634;9.516;2022-10-30T18:10:55;13.90;99.90
8338;DHT22;4206;48.634;9.516;2022-10-30T18:13:21;13.80;99.90
8338;DHT22;4206;48.634;9.516;2022-10-30T18:15:53;13.80;99.90
8338;DHT22;4206;48.634;9.516;2022-10-30T18:18:20;13.70;99.90
8338;DHT22;4206;48.634;9.516;2022-10-30T18:20:45;13.70;99.90
8338;DHT22;4206;48.634;9.516;2022-10-30T18:23:21;13.60;99.90
8338;DHT22;4206;48.634;9.516;2022-10-30T18:25:48;13.60;99.90
8338;DHT22;4206;48.634;9.516;2022-10-30T18:28:14;13.40;99.90
8338;DHT22;4206;48.634;9.516;2022-10-30T18:30:40;13.40;99.90
8338;DHT22;4206;48.634;9.516;2022-10-30T18:33:09;13.30;99.90
8338;DHT22;4206;48.634;9.516;2022-10-30T18:35:37;13.30;99.90